Time;durP1;ratioP1;P1;durP2;ratioP2;P2;SDS_P1;SDS_P2;PMS_P1;PMS_P2;Temp;Humidity;BMP_temperature;BMP_pressure;BME280_temperature;BME280_humidity;BME280_pressure;Samples;Min_cycle;Max_cycle;Signal;HPM_P1;HPM_P2
2021/11/03 00:01:29;;;;;;;56.25;22.05;;;;;;;;;;4994433;28;20061;-57
2021/11/03 00:03:55;;;;;;;51.75;21.27;;;;;;;;;;4994699;28;20046;-57
2021/11/03 00:06:23;;;;;;;49.08;21.90;;;;;;;;;;4979233;28;20125;-57
2021/11/03 00:08:50;;;;;;;44.67;19.13;;;;;;;;;;4994976;28;20046;-57
2021/11/03 00:11:17;;;;;;;53.08;20.75;;;;;;;;;;4994644;28;20070;-57
2021/11/03 00:13:43;;;;;;;42.67;17.60;;;;;;;;;;4994142;28;20405;-58
2021/11/03 00:16:10;;;;;;;42.33;16.98;;;;;;;;;;4994177;28;20042;-57
2021/11/03 00:18:37;;;;;;;47.17;17.83;;;;;;;;;;4994437;28;20512;-57
2021/11/03 00:21:04;;;;;;;48.38;20.20;;;;;;;;;;4994330;28;20113;-57
2021/11/03 00:23:31;;;;;;;46.10;19.25;;;;;;;;;;4994744;28;20042;-57
2021/11/03 00:25:57;;;;;;;46.78;19.38;;;;;;;;;;4994264;28;20070;-57
2021/11/03 00:28:24;;;;;;;50.50;20.63;;;;;;;;;;4994106;28;20118;-57
2021/11/03 00:30:52;;;;;;;47.42;18.58;;;;;;;;;;4993926;28;20057;-57
2021/11/03 00:33:20;;;;;;;34.80;17.20;;;;;;;;;;4994187;28;20042;-57
2021/11/03 00:35:47;;;;;;;40.10;18.08;;;;;;;;;;4994674;28;20497;-57
2021/11/03 00:38:13;;;;;;;40.42;17.70;;;;;;;;;;4993781;28;20050;-57
2021/11/03 00:40:40;;;;;;;42.88;18.45;;;;;;;;;;4976627;28;20088;-57
2021/11/03 00:43:07;;;;;;;40.00;17.08;;;;;;;;;;4974505;28;20418;-57
2021/11/03 00:45:34;;;;;;;49.30;18.52;;;;;;;;;;4976597;28;20402;-57
2021/11/03 00:48:01;;;;;;;48.38;19.77;;;;;;;;;;4993949;28;20113;-57
2021/11/03 00:50:31;;;;;;;45.25;18.08;;;;;;;;;;4993802;28;20169;-57
2021/11/03 00:52:58;;;;;;;46.42;19.92;;;;;;;;;;4993456;28;20049;-57
2021/11/03 00:55:25;;;;;;;45.97;19.75;;;;;;;;;;4976364;28;20042;-57
2021/11/03 00:57:51;;;;;;;47.85;19.95;;;;;;;;;;4993563;28;20477;-57
2021/11/03 01:00:19;;;;;;;47.22;19.73;;;;;;;;;;4992389;28;20521;-57
2021/11/03 01:02:47;;;;;;;46.72;17.63;;;;;;;;;;4992785;28;20043;-57
2021/11/03 01:05:15;;;;;;;48.05;19.25;;;;;;;;;;4993472;28;20469;-57
2021/11/03 01:07:42;;;;;;;46.97;18.25;;;;;;;;;;4975923;28;20057;-57
2021/11/03 01:10:08;;;;;;;46.85;19.05;;;;;;;;;;4993461;28;20042;-57
2021/11/03 01:12:35;;;;;;;46.42;19.20;;;;;;;;;;4993115;28;20049;-57
2021/11/03 01:15:02;;;;;;;47.90;17.85;;;;;;;;;;4992331;28;20097;-57
2021/11/03 01:17:28;;;;;;;38.00;16.52;;;;;;;;;;4989163;28;20050;-57
2021/11/03 01:19:55;;;;;;;43.28;17.67;;;;;;;;;;4990083;28;20062;-57
2021/11/03 01:22:21;;;;;;;42.95;15.60;;;;;;;;;;4993090;28;20121;-57
2021/11/03 01:24:47;;;;;;;28.13;12.05;;;;;;;;;;4993237;28;20056;-57
2021/11/03 01:27:13;;;;;;;49.00;17.88;;;;;;;;;;4991630;28;20120;-57
2021/11/03 01:29:41;;;;;;;47.30;18.17;;;;;;;;;;4993640;28;20181;-57
2021/11/03 01:32:07;;;;;;;39.33;17.20;;;;;;;;;;4975725;28;20065;-57
2021/11/03 01:34:34;;;;;;;42.22;16.77;;;;;;;;;;4975588;28;20141;-57
2021/11/03 01:37:00;;;;;;;45.40;17.80;;;;;;;;;;4975597;28;20065;-57
2021/11/03 01:39:26;;;;;;;34.38;13.85;;;;;;;;;;4975568;28;20089;-57
2021/11/03 01:41:53;;;;;;;43.75;17.05;;;;;;;;;;4993280;28;20410;-57
2021/11/03 01:44:19;;;;;;;46.15;17.67;;;;;;;;;;4992904;28;20048;-57
2021/11/03 01:46:57;;;;;;;26.92;13.07;;;;;;;;;;4975519;28;20502;-57
2021/11/03 01:49:30;;;;;;;42.15;16.45;;;;;;;;;;4975415;28;20047;-57
2021/11/03 01:52:10;;;;;;;49.08;18.70;;;;;;;;;;4975435;28;20047;-57
2021/11/03 01:54:43;;;;;;;43.53;18.23;;;;;;;;;;4975606;28;20078;-57
2021/11/03 01:57:14;;;;;;;40.92;16.13;;;;;;;;;;4975315;28;20149;-57
2021/11/03 01:59:43;;;;;;;43.40;16.88;;;;;;;;;;4991941;28;20050;-57
2021/11/03 02:02:10;;;;;;;43.60;18.08;;;;;;;;;;4992463;28;20077;-57
2021/11/03 02:04:37;;;;;;;44.92;16.67;;;;;;;;;;4996972;28;20042;-57
2021/11/03 02:07:07;;;;;;;46.05;16.63;;;;;;;;;;4976961;28;20070;-57
2021/11/03 02:09:33;;;;;;;33.47;13.65;;;;;;;;;;4979460;28;20069;-57
2021/11/03 02:11:59;;;;;;;50.92;17.35;;;;;;;;;;4976746;28;20050;-56
2021/11/03 02:14:26;;;;;;;45.10;17.17;;;;;;;;;;4982859;28;20078;-57
2021/11/03 02:16:53;;;;;;;38.28;15.50;;;;;;;;;;4991851;28;20084;-57
2021/11/03 02:19:31;;;;;;;29.50;13.02;;;;;;;;;;4996535;28;20096;-57
2021/11/03 02:22:02;;;;;;;42.42;15.57;;;;;;;;;;4979253;28;20089;-57
2021/11/03 02:24:32;;;;;;;37.70;15.88;;;;;;;;;;4978936;28;20468;-57
2021/11/03 02:26:58;;;;;;;36.35;14.93;;;;;;;;;;4996460;28;20043;-56
2021/11/03 02:29:25;;;;;;;38.97;14.85;;;;;;;;;;4978833;28;20067;-57
2021/11/03 02:31:53;;;;;;;43.58;16.55;;;;;;;;;;4995819;28;20054;-57
2021/11/03 02:34:27;;;;;;;38.78;16.17;;;;;;;;;;4995211;28;20104;-57
2021/11/03 02:36:54;;;;;;;41.78;16.40;;;;;;;;;;4996360;28;20042;-57
2021/11/03 02:39:23;;;;;;;40.22;14.85;;;;;;;;;;4994874;28;20046;-57
2021/11/03 02:41:49;;;;;;;26.23;12.27;;;;;;;;;;4979540;28;20450;-57
2021/11/03 02:44:16;;;;;;;34.75;14.95;;;;;;;;;;4978571;28;20518;-57
2021/11/03 02:46:44;;;;;;;32.20;14.95;;;;;;;;;;4995956;28;20061;-57
2021/11/03 02:49:11;;;;;;;37.92;15.82;;;;;;;;;;4977214;28;20121;-57
2021/11/03 02:51:39;;;;;;;31.38;11.82;;;;;;;;;;4978552;28;20069;-57
2021/11/03 02:54:08;;;;;;;38.00;15.45;;;;;;;;;;4994757;28;20573;-57
2021/11/03 02:56:44;;;;;;;34.00;14.25;;;;;;;;;;4977674;28;20050;-57
2021/11/03 02:59:11;;;;;;;32.50;15.48;;;;;;;;;;4994588;28;20082;-57
2021/11/03 03:01:48;;;;;;;32.88;13.18;;;;;;;;;;4995567;28;20506;-57
2021/11/03 03:04:18;;;;;;;30.70;14.27;;;;;;;;;;4978453;28;20141;-56
2021/11/03 03:06:45;;;;;;;35.63;15.10;;;;;;;;;;4978372;28;20181;-57
2021/11/03 03:09:13;;;;;;;34.08;14.48;;;;;;;;;;4977374;28;20054;-57
2021/11/03 03:11:41;;;;;;;33.45;15.77;;;;;;;;;;4978764;28;20074;-56
2021/11/03 03:14:09;;;;;;;32.35;15.52;;;;;;;;;;4977774;28;20129;-56
2021/11/03 03:16:36;;;;;;;38.20;16.17;;;;;;;;;;4977400;28;20117;-57
2021/11/03 03:19:03;;;;;;;35.83;15.20;;;;;;;;;;4994748;28;20542;-57
2021/11/03 03:21:31;;;;;;;40.45;16.02;;;;;;;;;;4977524;28;20050;-57
2021/11/03 03:23:59;;;;;;;38.45;15.88;;;;;;;;;;4993691;28;20050;-57
2021/11/03 03:26:26;;;;;;;35.22;14.38;;;;;;;;;;4994168;28;20090;-57
2021/11/03 03:28:52;;;;;;;34.50;16.40;;;;;;;;;;4977109;28;20046;-57
2021/11/03 03:31:19;;;;;;;33.28;13.98;;;;;;;;;;4977698;28;20049;-56
2021/11/03 03:33:47;;;;;;;33.10;14.43;;;;;;;;;;4977047;28;20188;-57
2021/11/03 03:36:14;;;;;;;37.40;16.17;;;;;;;;;;4977219;28;20057;-57
2021/11/03 03:38:40;;;;;;;38.20;16.05;;;;;;;;;;4995411;28;20097;-56
2021/11/03 03:41:07;;;;;;;32.88;14.95;;;;;;;;;;4977557;28;20133;-57
2021/11/03 03:43:33;;;;;;;42.20;16.85;;;;;;;;;;4995039;28;20113;-57
2021/11/03 03:46:00;;;;;;;36.78;14.93;;;;;;;;;;4977577;28;20070;-57
2021/11/03 03:48:27;;;;;;;32.42;15.95;;;;;;;;;;4977593;28;20406;-56
2021/11/03 03:50:54;;;;;;;39.17;16.60;;;;;;;;;;4994052;28;20046;-57
2021/11/03 03:53:23;;;;;;;35.85;17.10;;;;;;;;;;4994820;28;20054;-57
2021/11/03 03:55:51;;;;;;;28.98;12.85;;;;;;;;;;4977399;28;20490;-56
2021/11/03 03:58:20;;;;;;;36.25;15.90;;;;;;;;;;4976913;28;20108;-57
2021/11/03 04:00:47;;;;;;;40.22;15.55;;;;;;;;;;4977164;28;20046;-56
2021/11/03 04:03:13;;;;;;;41.08;17.27;;;;;;;;;;4976881;28;20081;-56
2021/11/03 04:05:43;;;;;;;32.15;13.30;;;;;;;;;;4978007;28;20494;-57
2021/11/03 04:08:11;;;;;;;40.47;15.90;;;;;;;;;;4977050;28;20049;-57
2021/11/03 04:10:38;;;;;;;42.22;16.05;;;;;;;;;;4977237;28;20454;-57
2021/11/03 04:13:04;;;;;;;38.80;16.17;;;;;;;;;;4977130;28;20073;-56
2021/11/03 04:15:31;;;;;;;39.58;16.63;;;;;;;;;;4977219;28;20085;-56
2021/11/03 04:17:57;;;;;;;39.58;16.00;;;;;;;;;;4993464;28;20544;-57
2021/11/03 04:20:24;;;;;;;32.45;14.68;;;;;;;;;;4977161;28;20493;-56
2021/11/03 04:22:51;;;;;;;43.88;17.00;;;;;;;;;;4976878;28;20052;-57
2021/11/03 04:25:17;;;;;;;38.65;16.00;;;;;;;;;;4993636;28;20513;-57
2021/11/03 04:27:44;;;;;;;37.45;17.40;;;;;;;;;;4976763;28;20057;-56
2021/11/03 04:30:12;;;;;;;38.50;16.80;;;;;;;;;;4994061;28;20049;-56
2021/11/03 04:32:39;;;;;;;39.63;16.02;;;;;;;;;;4977303;28;20078;-57
2021/11/03 04:35:07;;;;;;;48.05;17.75;;;;;;;;;;4976314;28;20126;-57
2021/11/03 04:37:33;;;;;;;39.72;15.48;;;;;;;;;;4976633;28;20204;-57
2021/11/03 04:39:59;;;;;;;40.63;17.38;;;;;;;;;;4993947;28;20490;-56
2021/11/03 04:42:26;;;;;;;44.88;17.48;;;;;;;;;;4976652;28;20056;-57
2021/11/03 04:44:54;;;;;;;37.35;17.23;;;;;;;;;;4992931;28;20125;-57
2021/11/03 04:47:20;;;;;;;36.40;16.50;;;;;;;;;;4992753;28;20082;-56
2021/11/03 04:49:47;;;;;;;37.97;16.83;;;;;;;;;;4992442;28;20121;-56
2021/11/03 04:52:13;;;;;;;38.00;17.55;;;;;;;;;;4992508;28;20039;-57
2021/11/03 04:54:41;;;;;;;40.47;17.52;;;;;;;;;;4976483;28;20057;-57
2021/11/03 04:57:08;;;;;;;39.05;16.63;;;;;;;;;;4992497;28;20054;-57
2021/11/03 04:59:35;;;;;;;34.10;15.23;;;;;;;;;;4990931;28;20513;-56
2021/11/03 05:02:01;;;;;;;30.52;15.45;;;;;;;;;;4992555;28;20499;-57
2021/11/03 05:04:29;;;;;;;36.20;16.20;;;;;;;;;;4992171;28;20391;-56
2021/11/03 05:06:55;;;;;;;39.78;16.73;;;;;;;;;;4992305;28;20049;-56
2021/11/03 05:09:22;;;;;;;41.25;15.95;;;;;;;;;;4976312;28;20042;-57
2021/11/03 05:11:50;;;;;;;40.35;18.50;;;;;;;;;;4989932;28;20383;-56
2021/11/03 05:14:17;;;;;;;44.72;17.60;;;;;;;;;;4975847;28;20129;-56
2021/11/03 05:16:48;;;;;;;39.42;16.55;;;;;;;;;;4993242;28;20418;-56
2021/11/03 05:19:22;;;;;;;37.20;17.10;;;;;;;;;;4975654;28;20446;-57
2021/11/03 05:21:52;;;;;;;31.27;13.77;;;;;;;;;;4960293;28;20062;-57
2021/11/03 05:24:19;;;;;;;36.90;16.65;;;;;;;;;;4993234;28;20077;-56
2021/11/03 05:26:45;;;;;;;34.65;17.45;;;;;;;;;;4993632;28;20070;-56
2021/11/03 05:29:13;;;;;;;40.05;17.98;;;;;;;;;;4993083;28;20074;-56
2021/11/03 05:31:39;;;;;;;38.45;16.50;;;;;;;;;;4993079;28;20038;-56
2021/11/03 05:34:05;;;;;;;39.60;16.52;;;;;;;;;;4992728;28;20066;-56
2021/11/03 05:36:32;;;;;;;41.42;17.25;;;;;;;;;;4975642;28;20096;-56
2021/11/03 05:38:59;;;;;;;34.08;12.57;;;;;;;;;;4993226;28;20053;-56
2021/11/03 05:41:26;;;;;;;35.85;17.77;;;;;;;;;;4992523;28;20050;-57
2021/11/03 05:43:52;;;;;;;39.63;17.05;;;;;;;;;;4992810;28;20039;-56
2021/11/03 05:46:20;;;;;;;36.17;16.23;;;;;;;;;;4992781;28;20046;-56
2021/11/03 05:48:47;;;;;;;48.70;17.02;;;;;;;;;;4992589;28;20104;-56
2021/11/03 05:51:15;;;;;;;33.88;14.40;;;;;;;;;;4992850;28;20080;-57
2021/11/03 05:53:41;;;;;;;36.67;15.80;;;;;;;;;;4993086;28;20054;-56
2021/11/03 05:56:08;;;;;;;31.27;13.73;;;;;;;;;;4992734;28;20198;-56
2021/11/03 05:58:35;;;;;;;45.95;17.10;;;;;;;;;;4992818;28;20142;-56
2021/11/03 06:01:02;;;;;;;36.40;14.25;;;;;;;;;;4992621;28;20057;-57
2021/11/03 06:03:29;;;;;;;34.72;14.18;;;;;;;;;;4992510;28;20121;-56
2021/11/03 06:05:55;;;;;;;43.00;16.40;;;;;;;;;;4993091;28;20054;-56
2021/11/03 06:08:21;;;;;;;36.75;15.07;;;;;;;;;;4991883;28;20050;-57
2021/11/03 06:10:50;;;;;;;35.00;15.25;;;;;;;;;;4992634;28;20117;-57
2021/11/03 06:13:19;;;;;;;24.08;10.48;;;;;;;;;;4975576;28;20109;-56
2021/11/03 06:15:45;;;;;;;38.13;15.50;;;;;;;;;;4992720;28;20047;-56
2021/11/03 06:18:11;;;;;;;36.30;15.13;;;;;;;;;;4991251;28;20073;-56
2021/11/03 06:20:38;;;;;;;32.97;16.08;;;;;;;;;;4993045;28;20077;-56
2021/11/03 06:23:05;;;;;;;35.75;14.32;;;;;;;;;;4992520;28;20100;-57
2021/11/03 06:25:32;;;;;;;33.28;14.23;;;;;;;;;;4992670;28;20489;-56
2021/11/03 06:27:59;;;;;;;19.30;10.15;;;;;;;;;;4992469;28;20502;-56
2021/11/03 06:30:27;;;;;;;34.53;13.88;;;;;;;;;;4992444;28;20128;-56
2021/11/03 06:32:53;;;;;;;32.33;14.25;;;;;;;;;;4992523;28;20449;-56
2021/11/03 06:35:20;;;;;;;38.17;15.02;;;;;;;;;;4992603;28;20081;-56
2021/11/03 06:37:47;;;;;;;28.20;12.48;;;;;;;;;;4992417;28;20092;-56
2021/11/03 06:40:14;;;;;;;31.70;13.43;;;;;;;;;;4992042;28;20078;-56
2021/11/03 06:42:40;;;;;;;39.85;15.27;;;;;;;;;;4992420;28;20058;-56
2021/11/03 06:45:08;;;;;;;30.73;13.63;;;;;;;;;;4992596;28;20069;-56
2021/11/03 06:47:34;;;;;;;45.95;17.33;;;;;;;;;;4990709;28;20042;-56
2021/11/03 06:50:01;;;;;;;26.00;12.77;;;;;;;;;;4995771;28;20046;-56
2021/11/03 06:52:28;;;;;;;24.50;12.35;;;;;;;;;;4995891;28;20043;-56
2021/11/03 06:54:55;;;;;;;39.53;16.80;;;;;;;;;;4995927;28;20046;-57
2021/11/03 06:57:22;;;;;;;51.28;18.60;;;;;;;;;;4980361;28;20046;-57
2021/11/03 06:59:48;;;;;;;46.63;19.10;;;;;;;;;;4996206;28;20093;-56
2021/11/03 07:02:15;;;;;;;34.95;15.88;;;;;;;;;;4995132;28;20441;-56
2021/11/03 07:04:42;;;;;;;55.28;20.55;;;;;;;;;;4995378;28;20554;-56
2021/11/03 07:07:09;;;;;;;37.42;16.13;;;;;;;;;;4990993;28;20042;-57
2021/11/03 07:09:35;;;;;;;42.35;18.98;;;;;;;;;;4991400;28;20482;-56
2021/11/03 07:12:01;;;;;;;43.75;17.98;;;;;;;;;;4995183;28;20140;-56
2021/11/03 07:14:28;;;;;;;43.90;16.42;;;;;;;;;;4994808;28;20126;-57
2021/11/03 07:16:54;;;;;;;46.90;19.75;;;;;;;;;;4995037;28;20042;-57
2021/11/03 07:19:20;;;;;;;41.08;18.20;;;;;;;;;;4995030;28;20132;-57
2021/11/03 07:21:47;;;;;;;44.10;17.08;;;;;;;;;;4995088;28;20117;-57
2021/11/03 07:24:13;;;;;;;35.13;14.88;;;;;;;;;;4994899;28;20042;-57
2021/11/03 07:26:43;;;;;;;42.22;17.13;;;;;;;;;;4986166;28;20089;-57
2021/11/03 07:29:10;;;;;;;39.28;14.82;;;;;;;;;;4994743;28;20038;-56
2021/11/03 07:31:36;;;;;;;40.88;16.05;;;;;;;;;;4994664;28;20081;-56
2021/11/03 07:34:03;;;;;;;38.00;16.40;;;;;;;;;;4995110;28;20082;-57
2021/11/03 07:36:30;;;;;;;43.65;17.55;;;;;;;;;;4995136;28;20050;-57
2021/11/03 07:38:57;;;;;;;47.58;18.65;;;;;;;;;;4995298;28;20486;-57
2021/11/03 07:41:23;;;;;;;38.50;16.77;;;;;;;;;;4994871;28;20082;-57
2021/11/03 07:43:50;;;;;;;42.05;17.48;;;;;;;;;;4994853;28;20061;-57
2021/11/03 07:46:17;;;;;;;35.13;14.25;;;;;;;;;;4995013;28;20137;-57
2021/11/03 07:48:44;;;;;;;42.45;18.52;;;;;;;;;;4995057;28;20069;-57
2021/11/03 07:51:12;;;;;;;37.03;16.73;;;;;;;;;;4993815;28;20493;-57
2021/11/03 07:53:38;;;;;;;32.03;14.52;;;;;;;;;;4995426;28;20069;-56
2021/11/03 07:56:07;;;;;;;39.20;14.23;;;;;;;;;;4994082;28;20078;-57
2021/11/03 07:58:34;;;;;;;33.28;14.70;;;;;;;;;;4993531;28;20390;-57
2021/11/03 08:01:00;;;;;;;30.15;14.02;;;;;;;;;;4994844;28;20073;-57
2021/11/03 08:03:27;;;;;;;32.25;15.43;;;;;;;;;;4994143;28;20046;-57
2021/11/03 08:05:54;;;;;;;26.45;14.18;;;;;;;;;;4995346;28;20042;-57
2021/11/03 08:08:22;;;;;;;33.75;16.17;;;;;;;;;;4993709;28;20049;-57
2021/11/03 08:10:53;;;;;;;33.15;14.95;;;;;;;;;;4993688;28;20506;-57
2021/11/03 08:13:19;;;;;;;34.92;14.43;;;;;;;;;;4991158;28;20501;-58
2021/11/03 08:15:47;;;;;;;26.25;13.38;;;;;;;;;;4994398;28;20042;-57
2021/11/03 08:18:14;;;;;;;34.70;13.68;;;;;;;;;;4994298;28;20174;-57
2021/11/03 08:20:41;;;;;;;29.38;13.88;;;;;;;;;;4994813;28;20081;-57
2021/11/03 08:23:08;;;;;;;26.98;13.65;;;;;;;;;;4995884;28;20046;-58
2021/11/03 08:25:35;;;;;;;28.35;11.35;;;;;;;;;;4994037;28;20115;-58
2021/11/03 08:28:02;;;;;;;22.27;10.63;;;;;;;;;;4984228;28;20042;-57
2021/11/03 08:30:28;;;;;;;31.52;13.50;;;;;;;;;;4989735;28;20053;-57
2021/11/03 08:32:57;;;;;;;21.75;11.57;;;;;;;;;;4991849;28;20041;-57
2021/11/03 08:35:25;;;;;;;32.03;14.35;;;;;;;;;;4992906;28;20129;-57
2021/11/03 08:37:52;;;;;;;26.83;13.35;;;;;;;;;;4991101;28;20486;-57
2021/11/03 08:40:20;;;;;;;27.17;13.85;;;;;;;;;;4991428;28;20407;-58
2021/11/03 08:42:47;;;;;;;21.67;11.73;;;;;;;;;;4991310;28;20046;-58
2021/11/03 08:45:14;;;;;;;28.50;12.90;;;;;;;;;;4990877;28;20062;-58
2021/11/03 08:47:41;;;;;;;22.40;11.15;;;;;;;;;;4992072;28;20081;-58
2021/11/03 08:50:10;;;;;;;25.05;11.88;;;;;;;;;;4991272;28;20042;-58
2021/11/03 08:52:36;;;;;;;22.70;12.10;;;;;;;;;;4991096;28;20077;-58
2021/11/03 08:55:03;;;;;;;26.33;12.38;;;;;;;;;;4968030;28;20082;-58
2021/11/03 08:57:29;;;;;;;18.90;8.15;;;;;;;;;;4992371;28;20038;-58
2021/11/03 08:59:57;;;;;;;23.98;11.25;;;;;;;;;;4995073;28;20058;-58
2021/11/03 09:02:24;;;;;;;18.65;10.43;;;;;;;;;;4992899;28;20148;-58
2021/11/03 09:04:51;;;;;;;21.08;9.93;;;;;;;;;;4992184;28;20090;-57
2021/11/03 09:07:18;;;;;;;21.85;10.98;;;;;;;;;;4992769;28;20042;-58
2021/11/03 09:09:47;;;;;;;18.15;10.50;;;;;;;;;;4990225;28;20129;-58
2021/11/03 09:12:14;;;;;;;21.77;10.60;;;;;;;;;;4990095;28;20085;-57
2021/11/03 09:14:41;;;;;;;20.33;9.38;;;;;;;;;;4991576;28;20414;-58
2021/11/03 09:17:09;;;;;;;21.77;11.20;;;;;;;;;;4990618;28;20134;-57
2021/11/03 09:19:36;;;;;;;20.13;10.00;;;;;;;;;;4990638;28;20080;-58
2021/11/03 09:22:02;;;;;;;18.75;9.43;;;;;;;;;;4991418;28;20053;-58
2021/11/03 09:24:28;;;;;;;19.65;11.13;;;;;;;;;;4990830;28;20749;-58
2021/11/03 09:26:55;;;;;;;21.20;9.57;;;;;;;;;;4990761;28;20120;-58
2021/11/03 09:29:21;;;;;;;21.27;10.02;;;;;;;;;;4990277;28;20038;-58
2021/11/03 09:31:48;;;;;;;24.30;12.02;;;;;;;;;;4990612;28;20447;-58
2021/11/03 09:34:14;;;;;;;20.25;10.30;;;;;;;;;;4990393;28;20052;-58
2021/11/03 09:36:42;;;;;;;18.60;10.25;;;;;;;;;;4989502;28;20077;-58
2021/11/03 09:39:12;;;;;;;27.15;12.23;;;;;;;;;;4989823;28;20572;-58
2021/11/03 09:41:48;;;;;;;22.17;11.60;;;;;;;;;;4990265;28;20050;-58
2021/11/03 09:44:34;;;;;;;24.52;11.70;;;;;;;;;;4989167;28;20054;-58
2021/11/03 09:47:00;;;;;;;21.00;10.10;;;;;;;;;;4990614;28;20050;-58
2021/11/03 09:49:41;;;;;;;19.27;10.82;;;;;;;;;;4988105;28;20568;-58
2021/11/03 09:52:20;;;;;;;20.50;11.43;;;;;;;;;;4987594;28;20053;-58
2021/11/03 09:54:48;;;;;;;21.15;9.93;;;;;;;;;;4989942;28;20042;-58
2021/11/03 09:57:17;;;;;;;17.00;9.30;;;;;;;;;;4989521;28;20437;-58
2021/11/03 09:59:50;;;;;;;18.38;9.93;;;;;;;;;;4992907;28;20552;-58
2021/11/03 10:02:22;;;;;;;26.40;12.02;;;;;;;;;;4991415;28;20065;-58
2021/11/03 10:05:01;;;;;;;20.02;11.38;;;;;;;;;;4991985;28;20066;-58
2021/11/03 10:07:32;;;;;;;15.77;8.43;;;;;;;;;;4990480;28;20074;-58
2021/11/03 10:10:07;;;;;;;18.52;9.75;;;;;;;;;;4988373;28;20478;-59
2021/11/03 10:12:33;;;;;;;17.70;9.63;;;;;;;;;;4991333;28;20093;-58
2021/11/03 10:14:59;;;;;;;25.88;11.75;;;;;;;;;;4992226;28;20042;-58
2021/11/03 10:17:30;;;;;;;20.25;10.93;;;;;;;;;;4992369;28;20038;-59
2021/11/03 10:19:57;;;;;;;18.45;8.93;;;;;;;;;;4991808;28;20185;-59
2021/11/03 10:22:38;;;;;;;15.80;8.75;;;;;;;;;;4991920;28;20517;-59
2021/11/03 10:25:17;;;;;;;16.08;8.80;;;;;;;;;;4993780;28;20081;-58
2021/11/03 10:27:48;;;;;;;17.50;8.82;;;;;;;;;;4993636;28;20112;-59
2021/11/03 10:30:33;;;;;;;16.55;9.55;;;;;;;;;;4994796;28;20061;-59
2021/11/03 10:33:22;;;;;;;14.93;8.05;;;;;;;;;;4993516;28;20393;-59
2021/11/03 10:35:58;;;;;;;19.55;8.88;;;;;;;;;;4996430;28;20086;-59
2021/11/03 10:38:26;;;;;;;16.17;8.15;;;;;;;;;;4995531;28;20050;-59
2021/11/03 10:41:03;;;;;;;18.63;9.73;;;;;;;;;;4995581;28;20529;-59
2021/11/03 10:43:32;;;;;;;15.60;9.25;;;;;;;;;;4995749;28;20038;-59
2021/11/03 10:46:05;;;;;;;15.82;9.48;;;;;;;;;;4995278;28;20088;-59
2021/11/03 10:48:31;;;;;;;13.38;8.02;;;;;;;;;;4994998;28;20043;-59
2021/11/03 10:50:58;;;;;;;16.83;8.20;;;;;;;;;;4995112;28;20038;-59
2021/11/03 10:53:50;;;;;;;12.07;7.15;;;;;;;;;;4995119;28;20065;-59
2021/11/03 10:56:20;;;;;;;17.45;8.13;;;;;;;;;;4992215;28;20062;-59
2021/11/03 10:58:52;;;;;;;16.90;7.78;;;;;;;;;;4992374;28;20093;-59
2021/11/03 11:01:30;;;;;;;17.45;8.45;;;;;;;;;;4994002;28;20056;-59
2021/11/03 11:03:56;;;;;;;14.18;7.78;;;;;;;;;;4994289;28;20090;-58
2021/11/03 11:06:25;;;;;;;15.65;7.93;;;;;;;;;;4994410;28;20176;-59
2021/11/03 11:08:56;;;;;;;10.60;6.65;;;;;;;;;;4994060;28;20039;-59
2021/11/03 11:11:23;;;;;;;9.98;6.53;;;;;;;;;;4994781;28;20101;-59
2021/11/03 11:14:02;;;;;;;16.83;8.00;;;;;;;;;;4994164;28;20121;-58
2021/11/03 11:17:01;;;;;;;14.07;7.97;;;;;;;;;;4994165;28;20078;-58
2021/11/03 11:19:42;;;;;;;14.77;7.53;;;;;;;;;;4933738;29;20059;-59
2021/11/03 11:22:27;;;;;;;18.27;8.82;;;;;;;;;;4933625;29;20142;-58
2021/11/03 11:25:03;;;;;;;10.32;5.80;;;;;;;;;;4933749;29;20055;-59
2021/11/03 11:27:38;;;;;;;12.15;6.93;;;;;;;;;;4932391;29;20103;-58
2021/11/03 11:30:10;;;;;;;11.70;6.78;;;;;;;;;;4934243;29;20480;-59
2021/11/03 11:32:48;;;;;;;12.07;6.15;;;;;;;;;;4934306;29;20495;-58
2021/11/03 11:35:23;;;;;;;15.60;8.15;;;;;;;;;;4933979;29;20055;-59
2021/11/03 11:37:50;;;;;;;13.18;7.63;;;;;;;;;;4932891;29;20079;-59
2021/11/03 11:40:27;;;;;;;17.63;8.15;;;;;;;;;;4933636;29;20111;-59
2021/11/03 11:42:58;;;;;;;13.48;6.70;;;;;;;;;;4932997;29;20130;-59
2021/11/03 11:45:27;;;;;;;13.15;7.72;;;;;;;;;;4931937;29;20050;-59
2021/11/03 11:47:56;;;;;;;12.43;7.47;;;;;;;;;;4933620;29;20063;-59
2021/11/03 11:50:25;;;;;;;14.38;8.38;;;;;;;;;;4934012;29;20055;-59
2021/11/03 11:52:53;;;;;;;12.75;7.70;;;;;;;;;;4932657;29;20075;-57
2021/11/03 11:55:21;;;;;;;12.80;8.57;;;;;;;;;;4970068;28;20073;-59
2021/11/03 11:57:57;;;;;;;10.85;6.20;;;;;;;;;;4993211;28;20074;-58
2021/11/03 12:00:24;;;;;;;11.45;7.43;;;;;;;;;;4990659;28;20498;-58
2021/11/03 12:02:51;;;;;;;10.85;7.32;;;;;;;;;;4992895;28;20529;-58
2021/11/03 12:05:41;;;;;;;13.45;7.15;;;;;;;;;;4993137;28;20069;-58
2021/11/03 12:08:13;;;;;;;12.82;5.85;;;;;;;;;;4991735;28;20538;-58
2021/11/03 12:10:41;;;;;;;10.73;6.90;;;;;;;;;;4990773;28;20042;-58
2021/11/03 12:13:11;;;;;;;11.15;5.90;;;;;;;;;;4993428;28;20125;-57
2021/11/03 12:15:50;;;;;;;10.27;6.03;;;;;;;;;;4993193;28;20074;-59
2021/11/03 12:18:39;;;;;;;10.13;5.75;;;;;;;;;;4991676;28;20054;-57
2021/11/03 12:21:33;;;;;;;11.13;6.50;;;;;;;;;;4992758;28;20050;-58
2021/11/03 12:24:08;;;;;;;8.83;5.23;;;;;;;;;;4993176;28;20070;-59
2021/11/03 12:26:44;;;;;;;10.82;5.22;;;;;;;;;;4992603;28;20073;-60
2021/11/03 12:29:17;;;;;;;9.18;5.90;;;;;;;;;;4989648;28;20050;-59
2021/11/03 12:31:43;;;;;;;11.00;5.60;;;;;;;;;;4992380;28;20129;-59
2021/11/03 12:34:09;;;;;;;9.30;5.35;;;;;;;;;;4992993;28;20524;-59
2021/11/03 12:36:48;;;;;;;9.18;5.85;;;;;;;;;;4993384;28;20113;-59
2021/11/03 12:39:29;;;;;;;10.75;6.20;;;;;;;;;;4992255;28;20410;-59
2021/11/03 12:41:57;;;;;;;8.98;6.15;;;;;;;;;;4993453;28;20054;-60
2021/11/03 12:44:28;;;;;;;7.32;5.32;;;;;;;;;;4993314;28;20073;-59
2021/11/03 12:46:55;;;;;;;8.25;5.78;;;;;;;;;;4992073;28;20053;-59
2021/11/03 12:49:23;;;;;;;10.05;6.03;;;;;;;;;;4991968;28;20072;-58
2021/11/03 12:51:51;;;;;;;10.77;5.28;;;;;;;;;;4992478;28;20493;-58
2021/11/03 12:54:20;;;;;;;9.05;5.50;;;;;;;;;;4992536;28;20074;-59
2021/11/03 12:57:05;;;;;;;12.65;6.10;;;;;;;;;;4993204;28;20038;-58
2021/11/03 12:59:37;;;;;;;10.68;5.53;;;;;;;;;;4992657;28;20180;-58
2021/11/03 13:02:14;;;;;;;13.48;6.60;;;;;;;;;;4991564;28;20054;-59
2021/11/03 13:04:44;;;;;;;9.07;5.25;;;;;;;;;;4991162;28;20070;-59
2021/11/03 13:07:25;;;;;;;8.50;5.25;;;;;;;;;;4991326;28;20478;-59
2021/11/03 13:09:56;;;;;;;8.35;5.10;;;;;;;;;;4988629;28;20116;-58
2021/11/03 13:12:30;;;;;;;7.32;4.93;;;;;;;;;;4991227;28;20050;-59
2021/11/03 13:14:58;;;;;;;;;;;;;;;;;;4992232;28;20089;-58
2021/11/03 13:17:26;;;;;;;11.88;5.30;;;;;;;;;;4991255;28;19922;-59
2021/11/03 13:19:52;;;;;;;9.80;5.32;;;;;;;;;;4991259;28;20046;-59
2021/11/03 13:22:30;;;;;;;9.10;4.95;;;;;;;;;;4991375;28;20042;-59
2021/11/03 13:24:57;;;;;;;9.63;5.15;;;;;;;;;;4991705;28;20065;-59
2021/11/03 13:27:25;;;;;;;8.65;5.40;;;;;;;;;;4991442;28;20070;-60
2021/11/03 13:29:57;;;;;;;7.75;4.78;;;;;;;;;;4973969;28;20046;-59
2021/11/03 13:32:27;;;;;;;12.10;5.72;;;;;;;;;;4990746;28;20070;-58
2021/11/03 13:34:57;;;;;;;8.32;5.10;;;;;;;;;;4990508;28;20086;-58
2021/11/03 13:37:25;;;;;;;8.48;5.80;;;;;;;;;;4989965;28;20068;-58
2021/11/03 13:39:53;;;;;;;8.60;5.55;;;;;;;;;;4991113;28;20401;-58
2021/11/03 13:42:25;;;;;;;9.65;5.75;;;;;;;;;;4990689;28;20070;-58
2021/11/03 13:45:00;;;;;;;7.00;4.82;;;;;;;;;;4991645;28;20042;-59
2021/11/03 13:47:29;;;;;;;9.65;5.97;;;;;;;;;;4991380;28;20513;-58
2021/11/03 13:50:15;;;;;;;8.57;5.78;;;;;;;;;;4989024;28;20043;-59
2021/11/03 13:52:52;;;;;;;10.80;5.00;;;;;;;;;;4989721;28;20583;-58
2021/11/03 13:55:22;;;;;;;8.25;4.68;;;;;;;;;;4989545;28;20113;-58
2021/11/03 13:57:48;;;;;;;9.48;5.40;;;;;;;;;;4989728;28;20074;-59
2021/11/03 14:00:28;;;;;;;8.37;5.03;;;;;;;;;;4952360;28;1062907;-58
2021/11/03 14:02:55;;;;;;;8.98;4.75;;;;;;;;;;4990538;28;20081;-58
2021/11/03 14:05:27;;;;;;;10.18;6.30;;;;;;;;;;4992600;28;20072;-58
2021/11/03 14:07:54;;;;;;;6.95;4.38;;;;;;;;;;4989346;28;20409;-58
2021/11/03 14:10:20;;;;;;;7.97;4.78;;;;;;;;;;4992062;28;20125;-58
2021/11/03 14:12:47;;;;;;;9.02;5.72;;;;;;;;;;4992005;28;20058;-58
2021/11/03 14:15:17;;;;;;;8.82;5.72;;;;;;;;;;4990555;28;20053;-58
2021/11/03 14:17:45;;;;;;;13.05;6.07;;;;;;;;;;4992643;28;20046;-58
2021/11/03 14:20:30;;;;;;;7.75;4.32;;;;;;;;;;4991812;28;20049;-58
2021/11/03 14:22:56;;;;;;;10.18;6.43;;;;;;;;;;4990290;28;20515;-58
2021/11/03 14:25:30;;;;;;;15.05;5.68;;;;;;;;;;4991989;28;20074;-58
2021/11/03 14:27:59;;;;;;;11.80;6.50;;;;;;;;;;4974530;28;20121;-58
2021/11/03 14:30:27;;;;;;;27.55;11.00;;;;;;;;;;4990323;28;20422;-58
2021/11/03 14:32:53;;;;;;;138.10;40.90;;;;;;;;;;4992465;28;20117;-59
2021/11/03 14:35:26;;;;;;;190.85;58.45;;;;;;;;;;4991987;28;20092;-58